sensor_id;sensor_type;location;lat;lon;timestamp;temperature;humidity
13817;DHT22;6979;52.116;5.286;2022-07-29T00:01:16;21.60;83.10
13817;DHT22;6979;52.116;5.286;2022-07-29T00:03:43;21.60;83.30
13817;DHT22;6979;52.116;5.286;2022-07-29T00:06:11;21.60;83.40
13817;DHT22;6979;52.116;5.286;2022-07-29T00:08:38;21.60;83.50
13817;DHT22;6979;52.116;5.286;2022-07-29T00:11:05;21.50;83.40
13817;DHT22;6979;52.116;5.286;2022-07-29T00:13:31;21.50;84.40
13817;DHT22;6979;52.116;5.286;2022-07-29T00:15:58;21.50;83.50
13817;DHT22;6979;52.116;5.286;2022-07-29T00:18:25;21.50;83.70
13817;DHT22;6979;52.116;5.286;2022-07-29T00:20:52;21.40;83.70
13817;DHT22;6979;52.116;5.286;2022-07-29T00:23:20;21.40;83.90
13817;DHT22;6979;52.116;5.286;2022-07-29T00:25:47;21.40;84.00
13817;DHT22;6979;52.116;5.286;2022-07-29T00:28:14;21.40;84.00
13817;DHT22;6979;52.116;5.286;2022-07-29T00:30:41;21.40;84.20
13817;DHT22;6979;52.116;5.286;2022-07-29T00:33:08;21.30;84.20
13817;DHT22;6979;52.116;5.286;2022-07-29T00:35:35;21.30;84.20
13817;DHT22;6979;52.116;5.286;2022-07-29T00:38:10;21.30;85.20
13817;DHT22;6979;52.116;5.286;2022-07-29T00:40:39;21.20;84.40
13817;DHT22;6979;52.116;5.286;2022-07-29T00:43:07;21.20;84.60
13817;DHT22;6979;52.116;5.286;2022-07-29T00:45:34;21.20;84.70
13817;DHT22;6979;52.116;5.286;2022-07-29T00:48:00;21.10;84.70
13817;DHT22;6979;52.116;5.286;2022-07-29T00:50:29;21.10;84.80
13817;DHT22;6979;52.116;5.286;2022-07-29T00:52:55;21.10;85.00
13817;DHT22;6979;52.116;5.286;2022-07-29T00:55:22;21.10;85.20
13817;DHT22;6979;52.116;5.286;2022-07-29T00:57:51;21.00;85.10
13817;DHT22;6979;52.116;5.286;2022-07-29T01:00:21;21.00;85.30
13817;DHT22;6979;52.116;5.286;2022-07-29T01:02:49;21.00;86.30
13817;DHT22;6979;52.116;5.286;2022-07-29T01:05:18;21.00;85.50
13817;DHT22;6979;52.116;5.286;2022-07-29T01:07:46;20.90;85.60
13817;DHT22;6979;52.116;5.286;2022-07-29T01:10:16;20.90;85.60
13817;DHT22;6979;52.116;5.286;2022-07-29T01:12:44;20.90;85.80
13817;DHT22;6979;52.116;5.286;2022-07-29T01:15:13;20.90;85.90
13817;DHT22;6979;52.116;5.286;2022-07-29T01:17:43;20.80;86.00
13817;DHT22;6979;52.116;5.286;2022-07-29T01:20:15;20.80;86.90
13817;DHT22;6979;52.116;5.286;2022-07-29T01:23:18;20.80;86.20
13817;DHT22;6979;52.116;5.286;2022-07-29T01:26:04;20.80;86.40
13817;DHT22;6979;52.116;5.286;2022-07-29T01:28:57;20.80;86.50
13817;DHT22;6979;52.116;5.286;2022-07-29T01:31:31;20.70;86.80
13817;DHT22;6979;52.116;5.286;2022-07-29T01:34:03;20.70;86.40
13817;DHT22;6979;52.116;5.286;2022-07-29T01:36:33;20.70;86.60
13817;DHT22;6979;52.116;5.286;2022-07-29T01:39:05;20.70;86.60
13817;DHT22;6979;52.116;5.286;2022-07-29T01:41:34;20.60;86.70
13817;DHT22;6979;52.116;5.286;2022-07-29T01:44:11;20.60;86.70
13817;DHT22;6979;52.116;5.286;2022-07-29T01:46:44;20.60;87.10
13817;DHT22;6979;52.116;5.286;2022-07-29T01:49:15;20.60;86.90
13817;DHT22;6979;52.116;5.286;2022-07-29T01:51:46;20.60;87.10
13817;DHT22;6979;52.116;5.286;2022-07-29T01:54:18;20.60;87.10
13817;DHT22;6979;52.116;5.286;2022-07-29T01:56:49;20.50;87.20
13817;DHT22;6979;52.116;5.286;2022-07-29T01:59:20;20.50;87.20
13817;DHT22;6979;52.116;5.286;2022-07-29T02:01:50;20.50;87.40
13817;DHT22;6979;52.116;5.286;2022-07-29T02:04:20;20.50;87.40
13817;DHT22;6979;52.116;5.286;2022-07-29T02:06:49;20.50;87.40
13817;DHT22;6979;52.116;5.286;2022-07-29T02:09:17;20.40;87.40
13817;DHT22;6979;52.116;5.286;2022-07-29T02:11:49;20.50;87.60
13817;DHT22;6979;52.116;5.286;2022-07-29T02:14:21;20.40;87.70
13817;DHT22;6979;52.116;5.286;2022-07-29T02:16:51;20.40;87.70
13817;DHT22;6979;52.116;5.286;2022-07-29T02:19:21;20.40;87.70
13817;DHT22;6979;52.116;5.286;2022-07-29T02:21:48;20.40;87.80
13817;DHT22;6979;52.116;5.286;2022-07-29T02:24:21;20.40;87.80
13817;DHT22;6979;52.116;5.286;2022-07-29T02:26:49;20.40;87.90
13817;DHT22;6979;52.116;5.286;2022-07-29T02:29:21;20.40;88.00
13817;DHT22;6979;52.116;5.286;2022-07-29T02:31:49;20.40;88.30
13817;DHT22;6979;52.116;5.286;2022-07-29T02:34:18;20.40;88.20
13817;DHT22;6979;52.116;5.286;2022-07-29T02:36:47;20.40;88.20
13817;DHT22;6979;52.116;5.286;2022-07-29T02:39:15;20.40;88.20
13817;DHT22;6979;52.116;5.286;2022-07-29T02:41:46;20.40;88.30
13817;DHT22;6979;52.116;5.286;2022-07-29T02:44:14;20.40;88.40
13817;DHT22;6979;52.116;5.286;2022-07-29T02:46:46;20.40;88.40
13817;DHT22;6979;52.116;5.286;2022-07-29T02:49:18;20.40;88.60
13817;DHT22;6979;52.116;5.286;2022-07-29T02:51:49;20.40;89.40
13817;DHT22;6979;52.116;5.286;2022-07-29T02:54:26;20.40;88.50
13817;DHT22;6979;52.116;5.286;2022-07-29T02:56:59;20.40;88.80
13817;DHT22;6979;52.116;5.286;2022-07-29T02:59:30;20.40;88.80
13817;DHT22;6979;52.116;5.286;2022-07-29T03:01:59;20.40;88.90
13817;DHT22;6979;52.116;5.286;2022-07-29T03:04:27;20.40;88.90
13817;DHT22;6979;52.116;5.286;2022-07-29T03:06:58;20.40;88.90
13817;DHT22;6979;52.116;5.286;2022-07-29T03:09:26;20.40;89.10
13817;DHT22;6979;52.116;5.286;2022-07-29T03:11:55;20.40;89.20
13817;DHT22;6979;52.116;5.286;2022-07-29T03:14:22;20.40;89.30
13817;DHT22;6979;52.116;5.286;2022-07-29T03:16:50;20.40;89.30
13817;DHT22;6979;52.116;5.286;2022-07-29T03:19:19;20.40;89.30
13817;DHT22;6979;52.116;5.286;2022-07-29T03:21:46;20.30;89.40
13817;DHT22;6979;52.116;5.286;2022-07-29T03:24:28;20.30;89.40
13817;DHT22;6979;52.116;5.286;2022-07-29T03:26:56;20.30;89.90
13817;DHT22;6979;52.116;5.286;2022-07-29T03:29:23;20.30;89.50
13817;DHT22;6979;52.116;5.286;2022-07-29T03:31:50;20.40;89.70
13817;DHT22;6979;52.116;5.286;2022-07-29T03:34:19;20.30;89.70
13817;DHT22;6979;52.116;5.286;2022-07-29T03:36:46;20.40;90.00
13817;DHT22;6979;52.116;5.286;2022-07-29T03:39:17;20.30;90.00
13817;DHT22;6979;52.116;5.286;2022-07-29T03:41:46;20.30;90.10
13817;DHT22;6979;52.116;5.286;2022-07-29T03:44:15;20.30;90.10
13817;DHT22;6979;52.116;5.286;2022-07-29T03:46:44;20.30;90.20
13817;DHT22;6979;52.116;5.286;2022-07-29T03:49:15;20.30;90.20
13817;DHT22;6979;52.116;5.286;2022-07-29T03:51:44;20.20;90.20
13817;DHT22;6979;52.116;5.286;2022-07-29T03:54:11;20.20;90.30
13817;DHT22;6979;52.116;5.286;2022-07-29T03:56:42;20.20;90.40
13817;DHT22;6979;52.116;5.286;2022-07-29T03:59:13;20.20;90.40
13817;DHT22;6979;52.116;5.286;2022-07-29T04:01:40;20.20;90.40
13817;DHT22;6979;52.116;5.286;2022-07-29T04:04:08;20.20;90.50
13817;DHT22;6979;52.116;5.286;2022-07-29T04:06:39;20.20;90.50
13817;DHT22;6979;52.116;5.286;2022-07-29T04:09:08;20.20;90.70
13817;DHT22;6979;52.116;5.286;2022-07-29T04:11:36;20.20;90.70
13817;DHT22;6979;52.116;5.286;2022-07-29T04:14:04;20.20;90.70
13817;DHT22;6979;52.116;5.286;2022-07-29T04:16:32;20.20;90.70
13817;DHT22;6979;52.116;5.286;2022-07-29T04:18:59;20.10;90.70
13817;DHT22;6979;52.116;5.286;2022-07-29T04:21:26;20.10;90.80
13817;DHT22;6979;52.116;5.286;2022-07-29T04:23:53;20.10;90.90
13817;DHT22;6979;52.116;5.286;2022-07-29T04:26:21;20.20;91.00
13817;DHT22;6979;52.116;5.286;2022-07-29T04:28:47;20.20;91.00
13817;DHT22;6979;52.116;5.286;2022-07-29T04:31:14;20.10;91.00
13817;DHT22;6979;52.116;5.286;2022-07-29T04:33:41;20.10;91.10
13817;DHT22;6979;52.116;5.286;2022-07-29T04:36:08;20.10;91.10
13817;DHT22;6979;52.116;5.286;2022-07-29T04:38:37;20.10;91.20
13817;DHT22;6979;52.116;5.286;2022-07-29T04:41:03;20.10;91.20
13817;DHT22;6979;52.116;5.286;2022-07-29T04:43:32;20.10;91.30
13817;DHT22;6979;52.116;5.286;2022-07-29T04:45:58;20.10;91.40
13817;DHT22;6979;52.116;5.286;2022-07-29T04:48:25;20.10;91.50
13817;DHT22;6979;52.116;5.286;2022-07-29T04:50:52;20.10;91.60
13817;DHT22;6979;52.116;5.286;2022-07-29T04:53:19;20.10;91.60
13817;DHT22;6979;52.116;5.286;2022-07-29T04:55:46;20.10;91.70
13817;DHT22;6979;52.116;5.286;2022-07-29T04:58:12;20.10;91.70
13817;DHT22;6979;52.116;5.286;2022-07-29T05:00:41;20.10;92.20
13817;DHT22;6979;52.116;5.286;2022-07-29T05:03:07;20.10;91.90
13817;DHT22;6979;52.116;5.286;2022-07-29T05:05:34;20.10;91.90
13817;DHT22;6979;52.116;5.286;2022-07-29T05:08:01;20.10;92.00
13817;DHT22;6979;52.116;5.286;2022-07-29T05:10:28;20.10;92.10
13817;DHT22;6979;52.116;5.286;2022-07-29T05:12:55;20.10;92.20
13817;DHT22;6979;52.116;5.286;2022-07-29T05:15:21;20.20;92.30
13817;DHT22;6979;52.116;5.286;2022-07-29T05:17:50;20.20;92.40
13817;DHT22;6979;52.116;5.286;2022-07-29T05:20:16;20.20;92.50
13817;DHT22;6979;52.116;5.286;2022-07-29T05:22:43;20.20;92.50
13817;DHT22;6979;52.116;5.286;2022-07-29T05:25:10;20.30;92.50
13817;DHT22;6979;52.116;5.286;2022-07-29T05:27:37;20.30;92.60
13817;DHT22;6979;52.116;5.286;2022-07-29T05:30:05;20.30;92.60
13817;DHT22;6979;52.116;5.286;2022-07-29T05:32:31;20.40;92.70
13817;DHT22;6979;52.116;5.286;2022-07-29T05:35:00;20.40;92.70
13817;DHT22;6979;52.116;5.286;2022-07-29T05:37:26;20.40;92.70
13817;DHT22;6979;52.116;5.286;2022-07-29T05:39:53;20.50;92.80
13817;DHT22;6979;52.116;5.286;2022-07-29T05:42:20;20.50;92.70
13817;DHT22;6979;52.116;5.286;2022-07-29T05:44:47;20.50;92.80
13817;DHT22;6979;52.116;5.286;2022-07-29T05:47:14;20.60;92.80
13817;DHT22;6979;52.116;5.286;2022-07-29T05:49:41;20.60;92.80
13817;DHT22;6979;52.116;5.286;2022-07-29T05:52:09;20.70;92.80
13817;DHT22;6979;52.116;5.286;2022-07-29T05:54:36;20.70;92.90
13817;DHT22;6979;52.116;5.286;2022-07-29T05:57:03;20.70;92.90
13817;DHT22;6979;52.116;5.286;2022-07-29T05:59:31;20.70;92.80
13817;DHT22;6979;52.116;5.286;2022-07-29T06:01:58;20.80;92.80
13817;DHT22;6979;52.116;5.286;2022-07-29T06:04:25;20.80;92.80
13817;DHT22;6979;52.116;5.286;2022-07-29T06:06:51;20.90;92.80
13817;DHT22;6979;52.116;5.286;2022-07-29T06:09:20;20.90;92.70
13817;DHT22;6979;52.116;5.286;2022-07-29T06:11:48;20.90;92.70
13817;DHT22;6979;52.116;5.286;2022-07-29T06:14:14;20.90;92.70
13817;DHT22;6979;52.116;5.286;2022-07-29T06:16:41;20.90;92.60
13817;DHT22;6979;52.116;5.286;2022-07-29T06:19:08;21.00;92.70
13817;DHT22;6979;52.116;5.286;2022-07-29T06:21:35;21.00;92.80
13817;DHT22;6979;52.116;5.286;2022-07-29T06:24:03;21.00;92.80
13817;DHT22;6979;52.116;5.286;2022-07-29T06:26:31;21.00;92.90
13817;DHT22;6979;52.116;5.286;2022-07-29T06:28:58;21.00;92.90
13817;DHT22;6979;52.116;5.286;2022-07-29T06:31:25;21.00;92.90
13817;DHT22;6979;52.116;5.286;2022-07-29T06:33:52;21.10;93.00
13817;DHT22;6979;52.116;5.286;2022-07-29T06:36:19;21.10;93.00
13817;DHT22;6979;52.116;5.286;2022-07-29T06:38:46;21.10;93.00
13817;DHT22;6979;52.116;5.286;2022-07-29T06:41:13;21.10;93.00
13817;DHT22;6979;52.116;5.286;2022-07-29T06:43:44;21.20;93.10
13817;DHT22;6979;52.116;5.286;2022-07-29T06:46:13;21.20;93.10
13817;DHT22;6979;52.116;5.286;2022-07-29T06:48:41;21.20;93.30
13817;DHT22;6979;52.116;5.286;2022-07-29T06:51:09;21.30;93.00
13817;DHT22;6979;52.116;5.286;2022-07-29T06:53:37;21.30;93.00
13817;DHT22;6979;52.116;5.286;2022-07-29T06:56:05;21.30;93.00
13817;DHT22;6979;52.116;5.286;2022-07-29T06:58:34;21.30;93.00
13817;DHT22;6979;52.116;5.286;2022-07-29T07:01:04;21.40;93.10
13817;DHT22;6979;52.116;5.286;2022-07-29T07:03:32;21.40;93.10
13817;DHT22;6979;52.116;5.286;2022-07-29T07:05:59;21.50;93.10
13817;DHT22;6979;52.116;5.286;2022-07-29T07:08:26;21.60;92.90
13817;DHT22;6979;52.116;5.286;2022-07-29T07:10:53;21.60;92.70
13817;DHT22;6979;52.116;5.286;2022-07-29T07:13:20;21.70;92.70
13817;DHT22;6979;52.116;5.286;2022-07-29T07:15:47;21.80;92.70
13817;DHT22;6979;52.116;5.286;2022-07-29T07:18:16;21.80;92.60
13817;DHT22;6979;52.116;5.286;2022-07-29T07:20:43;21.90;92.60
13817;DHT22;6979;52.116;5.286;2022-07-29T07:23:10;22.00;92.60
13817;DHT22;6979;52.116;5.286;2022-07-29T07:25:37;22.00;92.50
13817;DHT22;6979;52.116;5.286;2022-07-29T07:28:04;22.10;92.50
13817;DHT22;6979;52.116;5.286;2022-07-29T07:30:31;22.20;92.40
13817;DHT22;6979;52.116;5.286;2022-07-29T07:32:58;22.30;92.20
13817;DHT22;6979;52.116;5.286;2022-07-29T07:35:27;22.30;92.10
13817;DHT22;6979;52.116;5.286;2022-07-29T07:37:54;22.40;92.10
13817;DHT22;6979;52.116;5.286;2022-07-29T07:40:21;22.50;92.00
13817;DHT22;6979;52.116;5.286;2022-07-29T07:42:48;22.50;91.80
13817;DHT22;6979;52.116;5.286;2022-07-29T07:45:14;22.60;91.70
13817;DHT22;6979;52.116;5.286;2022-07-29T07:47:41;22.70;91.60
13817;DHT22;6979;52.116;5.286;2022-07-29T07:50:10;22.80;91.40
13817;DHT22;6979;52.116;5.286;2022-07-29T07:52:48;22.80;91.30
13817;DHT22;6979;52.116;5.286;2022-07-29T07:55:15;22.90;91.10
13817;DHT22;6979;52.116;5.286;2022-07-29T07:57:42;23.00;91.40
13817;DHT22;6979;52.116;5.286;2022-07-29T08:00:10;23.00;91.00
13817;DHT22;6979;52.116;5.286;2022-07-29T08:02:40;23.10;91.00
13817;DHT22;6979;52.116;5.286;2022-07-29T08:05:08;23.10;91.00
13817;DHT22;6979;52.116;5.286;2022-07-29T08:07:35;23.20;91.10
13817;DHT22;6979;52.116;5.286;2022-07-29T08:10:04;23.30;91.20
13817;DHT22;6979;52.116;5.286;2022-07-29T08:12:31;23.40;91.30
13817;DHT22;6979;52.116;5.286;2022-07-29T08:14:58;23.50;91.30
13817;DHT22;6979;52.116;5.286;2022-07-29T08:17:25;23.70;91.20
13817;DHT22;6979;52.116;5.286;2022-07-29T08:19:52;23.80;91.10
13817;DHT22;6979;52.116;5.286;2022-07-29T08:22:19;23.90;90.60
13817;DHT22;6979;52.116;5.286;2022-07-29T08:24:45;24.00;90.40
13817;DHT22;6979;52.116;5.286;2022-07-29T08:27:19;24.20;90.20
13817;DHT22;6979;52.116;5.286;2022-07-29T08:29:47;24.30;90.10
13817;DHT22;6979;52.116;5.286;2022-07-29T08:32:14;24.40;90.10
13817;DHT22;6979;52.116;5.286;2022-07-29T08:34:41;24.60;90.00
13817;DHT22;6979;52.116;5.286;2022-07-29T08:37:10;24.70;89.50
13817;DHT22;6979;52.116;5.286;2022-07-29T08:39:37;24.80;89.10
13817;DHT22;6979;52.116;5.286;2022-07-29T08:42:04;24.90;88.80
13817;DHT22;6979;52.116;5.286;2022-07-29T08:44:33;25.00;88.40
13817;DHT22;6979;52.116;5.286;2022-07-29T08:47:01;25.10;87.90
13817;DHT22;6979;52.116;5.286;2022-07-29T08:49:28;25.20;87.90
13817;DHT22;6979;52.116;5.286;2022-07-29T08:51:55;25.40;87.80
13817;DHT22;6979;52.116;5.286;2022-07-29T08:54:23;25.50;87.50
13817;DHT22;6979;52.116;5.286;2022-07-29T08:56:51;25.60;86.80
13817;DHT22;6979;52.116;5.286;2022-07-29T08:59:20;25.70;86.50
13817;DHT22;6979;52.116;5.286;2022-07-29T09:01:49;25.80;86.00
13817;DHT22;6979;52.116;5.286;2022-07-29T09:04:18;25.90;85.80
13817;DHT22;6979;52.116;5.286;2022-07-29T09:06:48;26.00;85.40
13817;DHT22;6979;52.116;5.286;2022-07-29T09:09:15;26.20;85.80
13817;DHT22;6979;52.116;5.286;2022-07-29T09:11:43;26.40;85.70
13817;DHT22;6979;52.116;5.286;2022-07-29T09:14:11;26.80;86.00
13817;DHT22;6979;52.116;5.286;2022-07-29T09:17:00;27.10;84.90
13817;DHT22;6979;52.116;5.286;2022-07-29T09:19:28;27.50;83.40
13817;DHT22;6979;52.116;5.286;2022-07-29T09:21:57;27.80;83.00
13817;DHT22;6979;52.116;5.286;2022-07-29T09:24:24;28.00;82.60
13817;DHT22;6979;52.116;5.286;2022-07-29T09:26:51;28.30;82.50
13817;DHT22;6979;52.116;5.286;2022-07-29T09:29:20;28.60;82.00
13817;DHT22;6979;52.116;5.286;2022-07-29T09:31:49;28.80;81.80
13817;DHT22;6979;52.116;5.286;2022-07-29T09:34:21;29.10;81.80
13817;DHT22;6979;52.116;5.286;2022-07-29T09:36:50;29.30;81.10
13817;DHT22;6979;52.116;5.286;2022-07-29T09:39:27;29.50;80.70
13817;DHT22;6979;52.116;5.286;2022-07-29T09:41:57;29.80;78.60
13817;DHT22;6979;52.116;5.286;2022-07-29T09:44:25;30.20;78.90
13817;DHT22;6979;52.116;5.286;2022-07-29T09:46:56;30.60;78.40
13817;DHT22;6979;52.116;5.286;2022-07-29T09:49:25;31.10;77.10
13817;DHT22;6979;52.116;5.286;2022-07-29T09:52:04;31.60;76.90
13817;DHT22;6979;52.116;5.286;2022-07-29T09:54:32;32.20;75.70
13817;DHT22;6979;52.116;5.286;2022-07-29T09:57:04;32.60;74.90
13817;DHT22;6979;52.116;5.286;2022-07-29T09:59:31;33.20;73.80
13817;DHT22;6979;52.116;5.286;2022-07-29T10:01:58;33.70;73.10
13817;DHT22;6979;52.116;5.286;2022-07-29T10:04:38;34.10;71.90
13817;DHT22;6979;52.116;5.286;2022-07-29T10:07:05;34.70;70.60
13817;DHT22;6979;52.116;5.286;2022-07-29T10:09:33;35.10;70.00
13817;DHT22;6979;52.116;5.286;2022-07-29T10:12:08;35.60;69.40
13817;DHT22;6979;52.116;5.286;2022-07-29T10:14:37;36.00;67.80
13817;DHT22;6979;52.116;5.286;2022-07-29T10:17:05;36.40;67.10
13817;DHT22;6979;52.116;5.286;2022-07-29T10:19:33;36.70;65.80
13817;DHT22;6979;52.116;5.286;2022-07-29T10:22:04;37.10;65.00
13817;DHT22;6979;52.116;5.286;2022-07-29T10:24:31;37.40;63.40
13817;DHT22;6979;52.116;5.286;2022-07-29T10:26:59;37.70;62.70
13817;DHT22;6979;52.116;5.286;2022-07-29T10:29:26;38.00;62.20
13817;DHT22;6979;52.116;5.286;2022-07-29T10:32:11;38.30;61.90
13817;DHT22;6979;52.116;5.286;2022-07-29T10:37:45;38.70;59.90
13817;DHT22;6979;52.116;5.286;2022-07-29T10:40:21;38.80;59.30
13817;DHT22;6979;52.116;5.286;2022-07-29T10:43:23;39.00;59.00
13817;DHT22;6979;52.116;5.286;2022-07-29T10:45:56;39.20;59.10
13817;DHT22;6979;52.116;5.286;2022-07-29T10:48:26;39.30;58.40
13817;DHT22;6979;52.116;5.286;2022-07-29T10:50:55;39.40;58.20
13817;DHT22;6979;52.116;5.286;2022-07-29T10:53:24;39.40;58.00
13817;DHT22;6979;52.116;5.286;2022-07-29T10:55:51;39.50;57.90
13817;DHT22;6979;52.116;5.286;2022-07-29T10:58:20;39.50;57.80
13817;DHT22;6979;52.116;5.286;2022-07-29T11:00:48;39.60;57.60
13817;DHT22;6979;52.116;5.286;2022-07-29T11:03:46;39.70;58.30
13817;DHT22;6979;52.116;5.286;2022-07-29T11:06:15;39.70;57.30
13817;DHT22;6979;52.116;5.286;2022-07-29T11:08:43;39.90;57.20
13817;DHT22;6979;52.116;5.286;2022-07-29T11:11:34;39.80;56.90
13817;DHT22;6979;52.116;5.286;2022-07-29T11:14:02;39.80;57.50
13817;DHT22;6979;52.116;5.286;2022-07-29T11:17:01;39.80;56.50
13817;DHT22;6979;52.116;5.286;2022-07-29T11:19:29;39.70;56.80
13817;DHT22;6979;52.116;5.286;2022-07-29T11:21:56;39.60;56.20
13817;DHT22;6979;52.116;5.286;2022-07-29T11:24:25;39.40;56.10
13817;DHT22;6979;52.116;5.286;2022-07-29T11:27:14;39.20;55.80
13817;DHT22;6979;52.116;5.286;2022-07-29T11:29:50;39.00;56.80
13817;DHT22;6979;52.116;5.286;2022-07-29T11:32:19;38.90;56.70
13817;DHT22;6979;52.116;5.286;2022-07-29T11:34:47;38.90;57.20
13817;DHT22;6979;52.116;5.286;2022-07-29T11:37:22;38.80;57.20
13817;DHT22;6979;52.116;5.286;2022-07-29T11:40:11;38.80;57.20
13817;DHT22;6979;52.116;5.286;2022-07-29T11:42:45;38.90;57.80
13817;DHT22;6979;52.116;5.286;2022-07-29T11:45:18;38.90;57.50
13817;DHT22;6979;52.116;5.286;2022-07-29T11:47:52;38.90;57.30
13817;DHT22;6979;52.116;5.286;2022-07-29T11:50:43;38.90;56.90
13817;DHT22;6979;52.116;5.286;2022-07-29T11:53:13;38.90;57.40
13817;DHT22;6979;52.116;5.286;2022-07-29T11:55:41;38.90;56.90
13817;DHT22;6979;52.116;5.286;2022-07-29T11:58:08;38.80;57.00
13817;DHT22;6979;52.116;5.286;2022-07-29T12:00:37;38.70;57.00
13817;DHT22;6979;52.116;5.286;2022-07-29T12:03:07;38.60;57.10
13817;DHT22;6979;52.116;5.286;2022-07-29T12:05:36;38.50;57.30
13817;DHT22;6979;52.116;5.286;2022-07-29T12:08:21;38.40;57.40
13817;DHT22;6979;52.116;5.286;2022-07-29T12:10:51;38.30;57.80
13817;DHT22;6979;52.116;5.286;2022-07-29T12:13:20;38.30;57.60
13817;DHT22;6979;52.116;5.286;2022-07-29T12:15:55;38.20;57.60
13817;DHT22;6979;52.116;5.286;2022-07-29T12:18:24;38.20;57.60
13817;DHT22;6979;52.116;5.286;2022-07-29T12:20:57;38.10;57.50
13817;DHT22;6979;52.116;5.286;2022-07-29T12:23:24;38.00;57.40
13817;DHT22;6979;52.116;5.286;2022-07-29T12:25:50;38.00;57.60
13817;DHT22;6979;52.116;5.286;2022-07-29T12:28:17;38.00;57.80
13817;DHT22;6979;52.116;5.286;2022-07-29T12:30:48;37.90;57.90
13817;DHT22;6979;52.116;5.286;2022-07-29T12:33:18;37.90;57.60
13817;DHT22;6979;52.116;5.286;2022-07-29T12:35:48;37.80;57.90
13817;DHT22;6979;52.116;5.286;2022-07-29T12:38:16;37.70;58.10
13817;DHT22;6979;52.116;5.286;2022-07-29T12:40:44;37.60;58.20
13817;DHT22;6979;52.116;5.286;2022-07-29T12:43:13;37.50;58.30
13817;DHT22;6979;52.116;5.286;2022-07-29T12:45:41;37.50;58.40
13817;DHT22;6979;52.116;5.286;2022-07-29T12:48:08;37.50;58.30
13817;DHT22;6979;52.116;5.286;2022-07-29T12:50:36;37.50;58.30
13817;DHT22;6979;52.116;5.286;2022-07-29T12:53:12;37.50;58.40
13817;DHT22;6979;52.116;5.286;2022-07-29T12:55:43;37.50;58.10
13817;DHT22;6979;52.116;5.286;2022-07-29T12:58:14;37.50;58.10
13817;DHT22;6979;52.116;5.286;2022-07-29T13:00:41;37.60;58.00
13817;DHT22;6979;52.116;5.286;2022-07-29T13:03:08;37.70;58.10
13817;DHT22;6979;52.116;5.286;2022-07-29T13:05:42;37.70;58.20
13817;DHT22;6979;52.116;5.286;2022-07-29T13:08:15;37.80;58.10
13817;DHT22;6979;52.116;5.286;2022-07-29T13:10:42;38.00;57.90
13817;DHT22;6979;52.116;5.286;2022-07-29T13:13:10;38.10;57.70
13817;DHT22;6979;52.116;5.286;2022-07-29T13:15:38;38.10;57.30
13817;DHT22;6979;52.116;5.286;2022-07-29T13:18:27;38.20;57.20
13817;DHT22;6979;52.116;5.286;2022-07-29T13:20:54;38.40;57.20
13817;DHT22;6979;52.116;5.286;2022-07-29T13:23:21;38.50;56.90
13817;DHT22;6979;52.116;5.286;2022-07-29T13:25:48;38.50;56.90
13817;DHT22;6979;52.116;5.286;2022-07-29T13:28:15;38.60;56.90
13817;DHT22;6979;52.116;5.286;2022-07-29T13:30:43;38.70;56.80
13817;DHT22;6979;52.116;5.286;2022-07-29T13:33:09;38.70;56.70
13817;DHT22;6979;52.116;5.286;2022-07-29T13:35:38;38.80;56.70
13817;DHT22;6979;52.116;5.286;2022-07-29T13:38:05;38.90;56.40
13817;DHT22;6979;52.116;5.286;2022-07-29T13:40:32;39.00;56.40
13817;DHT22;6979;52.116;5.286;2022-07-29T13:43:00;39.10;56.20
13817;DHT22;6979;52.116;5.286;2022-07-29T13:45:27;39.20;56.00
13817;DHT22;6979;52.116;5.286;2022-07-29T13:47:54;39.30;55.80
13817;DHT22;6979;52.116;5.286;2022-07-29T13:50:21;39.40;55.80
13817;DHT22;6979;52.116;5.286;2022-07-29T13:52:49;39.40;55.60
13817;DHT22;6979;52.116;5.286;2022-07-29T13:55:16;39.50;55.20
13817;DHT22;6979;52.116;5.286;2022-07-29T13:57:43;39.50;55.20
13817;DHT22;6979;52.116;5.286;2022-07-29T14:00:11;39.50;55.00
13817;DHT22;6979;52.116;5.286;2022-07-29T14:02:38;39.40;54.70
13817;DHT22;6979;52.116;5.286;2022-07-29T14:05:06;39.40;54.80
13817;DHT22;6979;52.116;5.286;2022-07-29T14:07:35;39.20;54.80
13817;DHT22;6979;52.116;5.286;2022-07-29T14:10:04;39.10;55.00
13817;DHT22;6979;52.116;5.286;2022-07-29T14:12:31;38.90;55.10
13817;DHT22;6979;52.116;5.286;2022-07-29T14:14:58;38.80;55.20
13817;DHT22;6979;52.116;5.286;2022-07-29T14:17:25;38.60;55.30
13817;DHT22;6979;52.116;5.286;2022-07-29T14:19:52;38.50;55.40
13817;DHT22;6979;52.116;5.286;2022-07-29T14:22:18;38.30;55.30
13817;DHT22;6979;52.116;5.286;2022-07-29T14:24:45;38.20;55.30
13817;DHT22;6979;52.116;5.286;2022-07-29T14:27:13;38.10;55.50
13817;DHT22;6979;52.116;5.286;2022-07-29T14:29:40;37.90;55.60
13817;DHT22;6979;52.116;5.286;2022-07-29T14:32:08;37.70;55.80
13817;DHT22;6979;52.116;5.286;2022-07-29T14:34:35;37.50;55.90
13817;DHT22;6979;52.116;5.286;2022-07-29T14:37:02;37.40;56.00
13817;DHT22;6979;52.116;5.286;2022-07-29T14:39:30;37.20;56.10
13817;DHT22;6979;52.116;5.286;2022-07-29T14:41:57;36.90;56.20
13817;DHT22;6979;52.116;5.286;2022-07-29T14:44:26;36.70;56.40
13817;DHT22;6979;52.116;5.286;2022-07-29T14:46:56;36.50;56.50
13817;DHT22;6979;52.116;5.286;2022-07-29T14:49:23;36.30;56.80
13817;DHT22;6979;52.116;5.286;2022-07-29T14:51:50;36.00;56.80
13817;DHT22;6979;52.116;5.286;2022-07-29T14:54:17;35.70;57.10
13817;DHT22;6979;52.116;5.286;2022-07-29T14:56:44;35.50;57.40
13817;DHT22;6979;52.116;5.286;2022-07-29T14:59:12;35.30;57.90
13817;DHT22;6979;52.116;5.286;2022-07-29T15:01:40;35.10;58.20
13817;DHT22;6979;52.116;5.286;2022-07-29T15:04:07;34.90;58.50
13817;DHT22;6979;52.116;5.286;2022-07-29T15:06:33;34.80;58.80
13817;DHT22;6979;52.116;5.286;2022-07-29T15:09:01;34.80;59.10
13817;DHT22;6979;52.116;5.286;2022-07-29T15:11:28;34.70;58.90
13817;DHT22;6979;52.116;5.286;2022-07-29T15:13:55;34.70;58.60
13817;DHT22;6979;52.116;5.286;2022-07-29T15:16:24;34.70;58.70
13817;DHT22;6979;52.116;5.286;2022-07-29T15:18:52;34.80;58.70
13817;DHT22;6979;52.116;5.286;2022-07-29T15:21:19;34.80;58.60
13817;DHT22;6979;52.116;5.286;2022-07-29T15:23:46;34.90;58.60
13817;DHT22;6979;52.116;5.286;2022-07-29T15:26:13;35.00;58.10
13817;DHT22;6979;52.116;5.286;2022-07-29T15:28:39;35.10;57.30
13817;DHT22;6979;52.116;5.286;2022-07-29T15:31:06;35.10;57.10
13817;DHT22;6979;52.116;5.286;2022-07-29T15:33:39;35.10;56.90
13817;DHT22;6979;52.116;5.286;2022-07-29T15:36:07;35.20;56.00
13817;DHT22;6979;52.116;5.286;2022-07-29T15:38:36;35.20;55.40
13817;DHT22;6979;52.116;5.286;2022-07-29T15:41:03;35.20;55.30
13817;DHT22;6979;52.116;5.286;2022-07-29T15:43:29;35.10;55.30
13817;DHT22;6979;52.116;5.286;2022-07-29T15:45:56;35.10;55.50
13817;DHT22;6979;52.116;5.286;2022-07-29T15:48:41;35.10;55.50
13817;DHT22;6979;52.116;5.286;2022-07-29T15:51:09;35.00;55.50
13817;DHT22;6979;52.116;5.286;2022-07-29T15:53:36;35.00;55.50
13817;DHT22;6979;52.116;5.286;2022-07-29T15:56:04;35.00;55.60
13817;DHT22;6979;52.116;5.286;2022-07-29T15:58:31;35.00;55.70
13817;DHT22;6979;52.116;5.286;2022-07-29T16:00:58;35.00;55.60